13°C
Porth, Newquay, Cornwall. UK  Tell A Friend
 Ad **Ad
Updated17/10/2017 17:30 
 


Nearby METAR Reports From


Metar Station     Metar Station     Metar Station     Metar Station     Metar Station
EGHQ Newquay     EGDR Culdrose (navy)     EGDX ST Athan raf     EGDY Yeovitilton (navy)     EGFF Cardiff
EGHH Bournemouth     EGBB Birmingham     EGKA Shoreham-By-Sea     EGOP Pembry Sands     EGTE Exeter Airport
EGGD Bristol     EGHE Scilly     EGJA Alderney     EGJB Guernsey     EGJJ Jersey
France       LFRC Cherbourg/Mauper     LFRB Brest/Guipavas     LFRO Lannion/Servel        
More Metars Here                                
EGHQ - Newquay, United Kingdom
Updated: 17/10/2017 17:20
Few Clouds
Few Clouds
 Wind from ESE
Wind: ESE 7 mph , 11 km/h, 6 kts
Temperature: 12°C
Dew Point: 9°C
Humidity: 82%
Barometer: 1016 hPa
Clouds: Few Clouds
Visibility: 6 miles , 10 km
Cloud details: Few Clouds 396 m
2017/10/17 16:20 EGHQ 171620Z 12006KT 9999 FEW013 12/09 Q1016
EGDR - Culdrose (navy), United Kingdom
Updated: 17/10/2017 16:50
Light rain, Overcast
Light rain, Overcast
 Wind from E
Wind: E 7 mph , 11 km/h, 6 kts
Temperature: 12°C
Dew Point: 9°C
Humidity: 82%
Barometer: 1016 hPa
Summary: Light Rain
Clouds: Overcast
Visibility: 6 miles , 10 km
Cloud details: Few Clouds 610 m
Mostly Cloudy 1981 m
Overcast 2438 m
2017/10/17 15:50 EGDR 171550Z 08006KT 9999 -RA FEW020 BKN065 OVC080 12/09 Q1016 BLU TEMPO SCT016 WHT
 
EGHC - Lands End, United Kingdom
Updated: 17/10/2017 17:20
Mostly Cloudy
Mostly Cloudy
 Wind from ESE
Wind: ESE 10 mph , 17 km/h, 9 kts
Temperature: 11°C
Dew Point: 8°C
Humidity: 82%
Barometer: 1015 hPa
Clouds: Mostly Cloudy
Visibility: 6 miles , 10 km
Cloud details: Few Clouds 305 m
Partly Cloudy 762 m
Mostly Cloudy 1219 m
2017/10/17 16:20 EGHC 171620Z 11009KT 9999 FEW010 SCT025 BKN040 11/08 Q1015
EGHE - Scilly Saint Mar, United Kingdom
Updated: 17/10/2017 17:20
Few Clouds
Few Clouds
 Wind from ESE
Wind: ESE 14 mph , 22 km/h, 12 kts
Temperature: 13°C
Dew Point: 7°C
Humidity: 67%
Barometer: 1015 hPa
Clouds: Few Clouds
Visibility: 6 miles , 10 km
Cloud details: Few Clouds 457 m
2017/10/17 16:20 EGHE 171620Z 11012KT 9999 FEW015 13/07 Q1015
 
EGTE - Exeter Airport, United Kingdom
Updated: 17/10/2017 17:20
Light rain, Mostly cloudy
Light rain, Mostly cloudy
 Wind from NE
Wind: NE 6 mph , 9 km/h, 5 kts
Temperature: 11°C
Dew Point: 9°C
Humidity: 88%
Barometer: 1016 hPa
Summary: Light Rain
Clouds: Mostly Cloudy
Visibility: 6 miles , 10 km
Cloud details: Mostly Cloudy 1372 m
2017/10/17 16:20 EGTE 171620Z 05005KT 010V110 9999 -RA BKN045 11/09 Q1016
EGOP - Pembry Sands, United Kingdom
Updated: 17/10/2017 16:50
Clear
Clear
 Wind from WSW
Wind: WSW 7 mph , 11 km/h, 6 kts
Temperature: 14°C
Dew Point: 9°C
Humidity: 72%
Barometer: 1017 hPa
Clouds: Clear
Visibility: 6 miles , 10 km
2017/10/17 15:50 EGOP 171550Z AUTO 24006KT 9999 // NCD 14/09 Q1017
 
EGDX - St Athan Raf, United Kingdom
Updated: 17/10/2017 16:50
Mostly Cloudy
Mostly Cloudy
 Wind from W
Wind: W 5 mph , 7 km/h, 4 kts
Temperature: 14°C
Dew Point: 8°C
Humidity: 67%
Barometer: 1017 hPa
Clouds: Mostly Cloudy
Visibility: 6 miles , 10 km
Cloud details: Few Clouds 914 m
Mostly Cloudy 2438 m
2017/10/17 15:50 EGDX 171550Z 28004KT 9999 FEW030 BKN080 14/08 Q1017 BLU
EGFF - Cardiff-Wales Ar, United Kingdom
Updated: 17/10/2017 17:20
Clear
Clear
 Wind from NW
Wind: NW 5 mph , 7 km/h, 4 kts
Temperature: 13°C
Dew Point: 9°C
Humidity: 77%
Barometer: 1017 hPa
Clouds: Clear
Visibility: 6 miles , 10 km
2017/10/17 16:20 EGFF 171620Z AUTO 32004KT 9999 NCD 13/09 Q1017
 
EGDY - Yeovilton (navy), United Kingdom
Updated: 17/10/2017 16:50
Mostly Cloudy
Mostly Cloudy
 Wind from S
Wind: S 3 mph , 6 km/h, 3 kts
Temperature: 12°C
Dew Point: 10°C
Humidity: 88%
Barometer: 1017 hPa
Clouds: Mostly Cloudy
Visibility: 6 miles , 10 km
Cloud details: Few Clouds 1219 m
Partly Cloudy 1829 m
Mostly Cloudy 2438 m
2017/10/17 15:50 EGDY 171550Z 18003KT 9999 FEW040 SCT060 BKN080 12/10 Q1017 BLU
EGGD - Bristol/Lulsgate, United Kingdom
Updated: 17/10/2017 17:20
Clear
Clear
 Wind from S
Wind: S 3 mph , 6 km/h, 3 kts
Temperature: 12°C
Dew Point: 9°C
Humidity: 82%
Barometer: 1017 hPa
Clouds: Clear
Visibility: 6 miles , 10 km
2017/10/17 16:20 EGGD 171620Z AUTO 18003KT 9999 NCD 12/09 Q1017
 
EGBB - Birmingham Airpo, United Kingdom
Updated: 17/10/2017 17:20
Few Clouds
Few Clouds
 Wind from W
Wind: W 7 mph , 11 km/h, 6 kts
Temperature: 14°C
Dew Point: 4°C
Humidity: 51%
Barometer: 1016 hPa
Clouds: Few Clouds
Visibility: 6 miles , 10 km
Cloud details: Few Clouds 1219 m
2017/10/17 16:20 EGBB 171620Z 27006KT 230V300 9999 FEW040 14/04 Q1016
EGHH - Bournemouth Airp, United Kingdom
Updated: 17/10/2017 17:20
Few Clouds
Few Clouds
 Wind from W
Wind: W 1 mph , 2 km/h, 1 kts
Temperature: 12°C
Dew Point: 9°C
Humidity: 82%
Barometer: 1017 hPa
Clouds: Few Clouds
Visibility: 6 miles , 10 km
Cloud details: Few Clouds 335 m
2017/10/17 16:20 EGHH 171620Z 28001KT 9999 FEW011 12/09 Q1017
 
EGKA - Shoreham-By-Sea, United Kingdom
Updated: 17/10/2017 17:20
Few Clouds
Few Clouds
 Wind from calm
Wind: Calm, 0 kts
Temperature: 14°C
Dew Point: 11°C
Humidity: 82%
Barometer: 1017 hPa
Clouds: Few Clouds
Visibility: 6 miles , 10 km
Cloud details: Few Clouds 1219 m
2017/10/17 16:20 EGKA 171620Z 00000KT 9999 FEW040 14/11 Q1017
EGJA - Alderney/Channel, United Kingdom
Updated: 17/10/2017 17:20
Few Clouds
Few Clouds
 Wind from NE
Wind: NE 10 mph , 17 km/h, 9 kts
Clouds: Few Clouds
Visibility: 6 miles , 10 km
Cloud details: Few Clouds 610 m
2017/10/17 16:20 EGJA 171620Z 05009KT 9999 FEW020 14/// Q1016
 
EGJB - Guernsey Airport, United Kingdom
Updated: 17/10/2017 17:20
Few Clouds
Few Clouds
 Wind from NE
Wind: NE 12 mph , 19 km/h, 10 kts
Temperature: 13°C
Dew Point: 10°C
Humidity: 82%
Barometer: 1015 hPa
Clouds: Few Clouds
Visibility: 6 miles , 10 km
Cloud details: Few Clouds 366 m
2017/10/17 16:20 EGJB 171620Z 04010KT 010V080 9999 FEW012 13/10 Q1015
EGJJ - Jersey Airport, United Kingdom
Updated: 17/10/2017 17:20
Clear
Clear
 Wind from ENE
Wind: ENE 13 mph , 20 km/h, 11 kts
Temperature: 15°C
Dew Point: 11°C
Humidity: 77%
Barometer: 1015 hPa
Summary: Clear
Visibility: greater than 7 miles , 10 km
2017/10/17 16:20 EGJJ 171620Z 07011KT CAVOK 15/11 Q1015
 
LFRC - Cherbourg/Mauper, France
Updated: 17/10/2017 17:30
Clear
Clear
 Wind from E
Wind: E 10 mph , 17 km/h, 9 kts
Temperature: 14°C
Dew Point: 10°C
Humidity: 77%
Barometer: 1016 hPa
Summary: Clear
Visibility: greater than 7 miles , 10 km
2017/10/17 16:30 LFRC 171630Z AUTO 08009KT CAVOK 14/10 Q1016 NOSIG
LFRB - Brest/Guipavas, France
Updated: 17/10/2017 17:30
Light rain, Overcast
Light rain, Overcast
 Wind from ENE
Wind: ENE 12 mph , 19 km/h, 10 kts
Temperature: 12°C
Dew Point: 11°C
Humidity: 94%
Barometer: 1014 hPa
Summary: Light Rain
Clouds: Overcast
Visibility: 4 miles , 6 km
Cloud details: Few Clouds 244 m
Overcast 671 m
2017/10/17 16:30 LFRB 171630Z AUTO 06010KT 6000 -RA FEW008 OVC022 12/11 Q1014 TEMPO 4000 BR BKN012
 
LFRO - Lannion/Servel, France
Updated: 17/10/2017 17:30
Overcast
Overcast
 Wind from ENE
Wind: ENE 7 mph , 11 km/h, 6 kts
Temperature: 14°C
Dew Point: 11°C
Humidity: 82%
Barometer: 1015 hPa
Clouds: Overcast
Visibility: 6 miles , 10 km
Cloud details: Overcast 853 m
2017/10/17 16:30 LFRO 171630Z AUTO 06006KT 020V090 9999 OVC028 14/11 Q1015 TEMPO 4000 BR BKN014

# Note Plymouth airport closed 23/12/2011

Metar, brief description

METAR is a format for reporting weather information. A METAR weather report is predominantly used by pilots in fulfillment of a part of a pre-flight weather briefing, and by meteorologists, who use aggregated METAR information to assist in weather forecasting.

Raw METAR is the most popular format in the world for the transmission of weather data. Each METAR report contains essential information about the current weather conditions: Temperature, Dew Point, Barometric Pressure, Wind Speed and Direction, Visibility, Clouds Cover, Current Weather (Rain, Thunderstorms, Hail, Snow and so on...), here is an example of a raw metar report for EGHQ (Newquay airport).
METAR not available